• Join FlightAware (Why Join?)
  • Login
  • US Flag 
11:44PM EDT


 

Airport Tracker/Info


-or-


 

Live Flight TrackerFlight Track Log ✈ DAL6036 ✈ 01-May-2013 ✈ KCHS - KDTW

Flight Track Log - Related Links

Times and Time Zones

All times are in EDT time to prevent confusion due to time zone crossing. See the DAL6036 flight status page for this flight to view local times or setup timezone preferences in your user account.

Time Position Orientation Groundspeed Altitude Reporting Facility
EDT Latitude Longitude Course Direction KTS MPH feet Rate Location/Type
05:00PM 32.9803 -80.0622 352° North 223 257 3,800  Level Jacksonville Center
05:01PM 33.0417 -80.0950 336° Northwest 223 257 4,900 1,980 Climbing Jacksonville Center
05:02PM 33.2738 -80.2202 337° Northwest  Level FlightAware Approximate
05:02PM 33.1197 -80.1347 337° Northwest 257 296 7,800  Level Jacksonville Center
05:03PM 33.3712 -80.2689 337° Northwest  Level FlightAware Approximate
05:03PM 33.1894 -80.1747 334° Northwest 279 321 9,800  Level Jacksonville Center
05:04PM 33.4685 -80.3176 337° Northwest  Level FlightAware Approximate
05:04PM 33.2711 -80.1944 349° North 290 334 11,400  Level Jacksonville Center
05:05PM 33.5683 -80.3558 352° North  Level FlightAware Approximate
05:05PM 33.3614 -80.2117 351° North 305 351 13,000  Level Jacksonville Center
05:06PM 33.4514 -80.2289 351° North 315 362 14,500 1,500 Climbing Jacksonville Center
05:07PM 33.5436 -80.2486 350° North 326 375 16,000 1,500 Climbing Jacksonville Center
05:08PM 33.6400 -80.2681 350° North 338 389 17,500 1,260 Climbing Jacksonville Center
05:09PM 33.7364 -80.2878 350° North 338 389 18,600 1,260 Climbing Jacksonville Center
05:10PM 33.8350 -80.3047 352° North 343 395 20,100 1,440 Climbing Jacksonville Center
05:11PM 33.9356 -80.3269 350° North 355 409 21,500 1,440 Climbing Jacksonville Center
05:12PM 34.0361 -80.3464 351° North 355 409 23,000 1,440 Climbing Jacksonville Center
05:13PM 34.1367 -80.3661 351° North 360 414 24,400 1,440 Climbing Jacksonville Center
05:14PM 34.2353 -80.3958 346° North 360 414 25,900 1,440 Climbing Jacksonville Center
05:16PM 34.3900 -80.4919 333° Northwest 346 398 28,500 1,320 Climbing Atlanta Center
05:17PM 34.4847 -80.5158 348° North 346 398 29,600 1,020 Climbing Atlanta Center
05:18PM 34.5831 -80.5319 352° North 352 405 30,600 660 Climbing Atlanta Center
05:19PM 34.6858 -80.5503 352° North 363 418 31,000 180 Climbing Atlanta Center
05:20PM 34.7969 -80.5683 352° North 387 445 31,000  Level Atlanta Center
05:21PM 34.9144 -80.5914 351° North 415 478 31,000  Level Atlanta Center
05:22PM 35.0319 -80.6119 352° North 427 491 31,000  Level Atlanta Center
05:23PM 35.1389 -80.6303 352° North 432 497 31,000  Level Atlanta Center
05:24PM 35.2564 -80.6533 351° North 432 497 31,000 60 Level Atlanta Center
05:25PM 35.3758 -80.6714 353° North 432 497 31,200 480 Climbing Atlanta Center
05:26PM 35.4892 -80.6950 350° North 423 487 32,000 360 Climbing Atlanta Center
05:27PM 35.6064 -80.7131 353° North 418 481 32,000  Level Atlanta Center
05:28PM 35.7258 -80.7339 352° North 430 495 32,000  Level Atlanta Center
05:29PM 35.8475 -80.7597 350° North 430 495 32,000  Level Atlanta Center
05:30PM 35.9650 -80.7806 352° North 430 495 32,000  Level Atlanta Center
05:31PM 36.0844 -80.8039 351° North 430 495 32,000  Level Atlanta Center
05:32PM 36.2019 -80.8250 352° North 430 495 32,000  Level Atlanta Center
05:33PM 36.3192 -80.8461 352° North 430 495 32,000  Level Atlanta Center
05:34PM 36.4489 -80.8667 353° North 425 489 32,000  Level Atlanta Center
05:35PM 36.5664 -80.8931 350° North 425 489 32,000  Level Atlanta Center
05:36PM 36.7367 -80.9253 351° North 430 495 32,000  Level Indianapolis Center
05:37PM 36.8744 -80.9506 352° North 428 493 32,000  Level Indianapolis Center
05:38PM 36.9875 -80.9719 351° North 424 488 32,000  Level Indianapolis Center
05:39PM 37.1025 -80.9933 352° North 425 489 32,000  Level Indianapolis Center
05:41PM 37.2389 -81.0197 351° North 421 484 32,000  Level Indianapolis Center
05:42PM 37.3531 -81.0419 351° North 424 488 32,000  Level Indianapolis Center
05:43PM 37.4661 -81.0631 352° North 421 484 32,000  Level Indianapolis Center
05:44PM 37.5789 -81.0850 351° North 420 483 32,000  Level Indianapolis Center
05:45PM 37.7158 -81.1111 351° North 424 488 32,000  Level Indianapolis Center
05:46PM 37.8244 -81.1383 349° North 416 479 32,000  Level Indianapolis Center
05:47PM 37.9375 -81.1825 343° North 423 487 32,000  Level Indianapolis Center
05:48PM 38.0511 -81.2239 344° North 421 484 32,000  Level Indianapolis Center
05:49PM 38.1647 -81.2669 343° North 426 490 32,000  Level Indianapolis Center
05:50PM 38.3014 -81.3183 344° North 426 490 32,000  Level Indianapolis Center
05:51PM 38.4161 -81.3622 343° North 429 494 32,000  Level Indianapolis Center
05:52PM 38.5319 -81.4053 344° North 432 497 32,000  Level Indianapolis Center
05:53PM 38.6581 -81.4542 343° North 436 502 32,000  Level Indianapolis Center
05:54PM 38.7750 -81.4997 343° North 438 504 32,000  Level Indianapolis Center
05:55PM 38.8994 -81.5464 344° North 447 514 32,000  Level Indianapolis Center
05:56PM 39.0164 -81.5917 343° North 442 509 32,000  Level Indianapolis Center
05:57PM 39.1342 -81.6375 343° North 443 510 32,000  Level Indianapolis Center
05:58PM 39.2533 -81.6819 344° North 446 513 32,000  Level Indianapolis Center
05:59PM 39.3958 -81.7378 343° North 446 513 32,000  Level Indianapolis Center
06:00PM 39.5156 -81.7853 343° North 450 518 32,000  Level Indianapolis Center
06:01PM 39.6353 -81.8317 343° North 449 517 32,000  Level Indianapolis Center
06:02PM 39.7561 -81.8706 346° North 454 522 32,000 -60 Level Indianapolis Center
06:03PM 39.8814 -81.8919 353° North 450 518 31,900 -660 Descending Indianapolis Center
06:04PM 40.0072 -81.9142 352° North 452 520 30,700 -1,020 Descending Indianapolis Center
06:05PM 40.1547 -81.9408 352° North 453 521 29,900 -360 Descending Indianapolis Center
06:06PM 40.2797 -81.9625 352° North 451 519 30,000  Climbing Indianapolis Center
06:07PM 40.4067 -81.9869 352° North 454 522 30,000  Level Indianapolis Center
06:08PM 40.4731 -81.9997 352° North 449 517 30,000  Level Cleveland Center
06:09PM 40.5981 -82.0242 352° North 455 524 30,000  Level Cleveland Center
06:10PM 40.7228 -82.0461 352° North 455 524 30,000 -120 Level Cleveland Center
06:11PM 40.8517 -82.0792 349° North 466 536 29,800 -540 Descending Cleveland Center
06:12PM 40.9400 -82.1664 323° Northwest 448 516 29,000 -900 Descending Cleveland Center
06:13PM 41.0322 -82.2758 318° Northwest 443 510 28,100 -780 Descending Cleveland Center
06:14PM 41.1203 -82.3775 319° Northwest 435 501 27,500 -960 Descending Cleveland Center
06:15PM 41.2106 -82.4794 320° Northwest 428 493 26,200 -2,100 Descending Cleveland Center
06:16PM 41.3044 -82.5900 319° Northwest 433 498 23,300 -3,060 Descending Cleveland Center
06:17PM 41.4067 -82.7039 320° Northwest 438 504 20,100 -3,120 Descending Cleveland Center
06:18PM 41.4903 -82.8008 319° Northwest 417 480 17,300 -3,060 Descending Cleveland Center
06:19PM 41.5717 -82.8981 318° Northwest 388 447 14,100 -2,580 Descending Cleveland Center
06:20PM 41.6469 -82.9867 319° Northwest 389 448 12,100 -1,080 Descending Cleveland Center
06:21PM 41.7389 -83.0850 321° Northwest 389 448 12,000 -60 Descending Cleveland Center
06:22PM 41.8311 -83.1553 330° Northwest 389 448 12,000  Level Cleveland Center
06:23PM 41.9111 -83.2117 332° Northwest 359 413 12,000  Level Cleveland Center
06:24PM 41.9744 -83.2644 328° Northwest 289 333 12,000  Level Cleveland Center
06:25PM 42.0319 -83.3033 333° Northwest 263 303 12,000 -180 Level Cleveland Center
06:26PM 42.1011 -83.2839 12° North 237 273 11,700 -960 Descending Cleveland Center
06:27PM 42.1647 -83.2444 25° Northeast 243 280 10,100 -1,620 Descending Cleveland Center
06:27PM 42.1900 -83.2289 25° Northeast 250 288 9,600 -1,620 Descending Cleveland Center
06:28PM 42.2536 -83.1836 28° Northeast 248 285 8,000 -1,500 Descending Cleveland Center
06:29PM 42.3006 -83.1294 40° Northeast 247 284 6,700 -1,020 Descending Cleveland Center
06:30PM 42.3619 -83.0925 24° Northeast 238 274 6,100 -720 Descending Cleveland Center
06:31PM 42.3753 -83.1550 286° West 190 219 5,300 -960 Descending Cleveland Center
06:32PM 42.3569 -83.2189 249° West 182 209 4,200 -1,080 Descending Cleveland Center
06:33PM 42.3186 -83.2622 220° Southwest 174 200 3,100 -1,140 Descending Cleveland Center